Time;durP1;ratioP1;P1;durP2;ratioP2;P2;SDS_P1;SDS_P2;PMS_P1;PMS_P2;Temp;Humidity;BMP_temperature;BMP_pressure;BME280_temperature;BME280_humidity;BME280_pressure;Samples;Min_cycle;Max_cycle;Signal;HPM_P1;HPM_P2
2021/01/28 00:02:05;;;;;;;28.80;22.20;;;2.10;99.90;;;;;;5015940;28;20167;-76
2021/01/28 00:04:31;;;;;;;29.20;21.73;;;2.10;99.90;;;;;;5017373;28;20201;-76
2021/01/28 00:06:57;;;;;;;30.30;22.00;;;2.10;99.90;;;;;;5016796;28;20249;-75
2021/01/28 00:09:23;;;;;;;31.60;22.53;;;2.10;99.90;;;;;;5016110;28;20540;-75
2021/01/28 00:11:49;;;;;;;32.50;22.77;;;2.00;99.90;;;;;;5015491;28;20175;-76
2021/01/28 00:14:15;;;;;;;31.93;22.80;;;2.00;99.90;;;;;;5016071;28;20211;-76
2021/01/28 00:16:41;;;;;;;31.33;21.97;;;2.00;99.90;;;;;;5015541;28;20245;-76
2021/01/28 00:19:08;;;;;;;31.00;22.33;;;2.00;99.90;;;;;;5015885;28;20297;-76
2021/01/28 00:21:33;;;;;;;27.93;21.50;;;2.00;99.90;;;;;;5015579;28;20229;-77
2021/01/28 00:23:59;;;;;;;29.13;21.80;;;2.00;99.90;;;;;;5015303;28;20226;-76
2021/01/28 00:26:25;;;;;;;29.97;21.70;;;2.00;99.90;;;;;;5015446;28;20857;-76
2021/01/28 00:28:50;;;;;;;29.40;22.63;;;2.00;99.90;;;;;;5015367;28;20171;-76
2021/01/28 00:31:16;;;;;;;31.17;22.63;;;2.00;99.90;;;;;;5015713;28;20257;-77
2021/01/28 00:33:42;;;;;;;32.50;23.23;;;2.00;99.90;;;;;;5015312;28;20307;-76
2021/01/28 00:36:08;;;;;;;31.23;22.47;;;2.10;99.90;;;;;;5014007;28;20203;-76
2021/01/28 00:38:36;;;;;;;29.90;21.90;;;2.00;99.90;;;;;;5015380;28;20258;-76
2021/01/28 00:41:05;;;;;;;28.17;20.80;;;2.00;99.90;;;;;;5015334;28;20199;-76
2021/01/28 00:43:30;;;;;;;30.33;21.47;;;2.00;99.90;;;;;;5015209;28;20175;-76
2021/01/28 00:45:58;;;;;;;28.27;20.67;;;2.10;99.90;;;;;;5014976;28;20688;-78
2021/01/28 00:48:25;;;;;;;29.83;21.63;;;2.10;99.90;;;;;;5015137;28;20171;-76
2021/01/28 00:50:52;;;;;;;34.60;23.07;;;2.00;99.90;;;;;;5014971;28;20676;-76
2021/01/28 00:53:19;;;;;;;30.83;22.77;;;2.00;99.90;;;;;;5015067;28;20183;-76
2021/01/28 00:55:45;;;;;;;33.20;23.57;;;2.00;99.90;;;;;;5014966;28;20566;-77
2021/01/28 00:58:14;;;;;;;32.80;22.73;;;2.00;99.90;;;;;;5015117;28;20540;-76
2021/01/28 01:00:42;;;;;;;29.33;23.00;;;2.00;99.90;;;;;;5012568;28;20320;-76
2021/01/28 01:03:10;;;;;;;33.47;23.17;;;1.90;99.90;;;;;;5013490;28;20171;-76
2021/01/28 01:05:38;;;;;;;28.70;21.77;;;1.90;99.90;;;;;;5014620;28;20238;-76
2021/01/28 01:08:06;;;;;;;29.13;22.03;;;1.90;99.90;;;;;;5014725;28;20182;-77
2021/01/28 01:10:52;;;;;;;31.87;21.87;;;1.90;99.90;;;;;;5014488;28;20187;-76
2021/01/28 01:13:24;;;;;;;29.30;21.93;;;1.90;99.90;;;;;;5014478;28;20214;-76
2021/01/28 01:15:51;;;;;;;29.83;21.93;;;1.90;99.90;;;;;;5014564;28;20685;-76
2021/01/28 01:18:25;;;;;;;30.30;21.27;;;1.80;99.90;;;;;;5014561;28;20179;-76
2021/01/28 01:20:51;;;;;;;29.20;21.23;;;1.80;99.90;;;;;;5014451;28;20202;-77
2021/01/28 01:23:18;;;;;;;31.43;21.93;;;1.90;99.90;;;;;;5014768;28;20229;-76
2021/01/28 01:25:44;;;;;;;34.57;22.73;;;1.90;99.90;;;;;;5014350;28;20194;-76
2021/01/28 01:28:10;;;;;;;31.17;22.33;;;1.90;99.90;;;;;;5014608;28;20186;-76
2021/01/28 01:30:37;;;;;;;32.50;22.70;;;1.90;99.90;;;;;;5014180;28;20665;-76
2021/01/28 01:33:03;;;;;;;32.57;22.33;;;1.90;99.90;;;;;;5014244;28;20175;-76
2021/01/28 01:35:29;;;;;;;31.70;22.27;;;1.80;99.90;;;;;;5014009;28;20257;-76
2021/01/28 01:37:56;;;;;;;27.17;20.93;;;1.80;99.90;;;;;;5014189;28;20661;-77
2021/01/28 01:40:27;;;;;;;30.23;20.97;;;1.80;99.90;;;;;;5013977;28;20203;-76
2021/01/28 01:42:54;;;;;;;28.73;21.67;;;1.80;99.90;;;;;;5014025;28;20183;-76
2021/01/28 01:45:30;;;;;;;32.13;21.70;;;1.90;99.90;;;;;;5013900;28;20222;-76
2021/01/28 01:48:04;;;;;;;29.23;22.60;;;1.90;99.90;;;;;;5013972;28;20660;-76
2021/01/28 01:50:40;;;;;;;28.07;20.90;;;1.90;99.90;;;;;;5012670;28;20182;-76
2021/01/28 01:53:12;;;;;;;29.33;22.03;;;2.00;99.90;;;;;;5013827;28;20586;-76
2021/01/28 01:55:39;;;;;;;28.97;21.03;;;2.00;99.90;;;;;;5016070;28;20211;-76
2021/01/28 01:58:07;;;;;;;29.30;21.57;;;2.00;99.90;;;;;;5013658;28;20174;-76
2021/01/28 02:00:33;;;;;;;29.27;21.97;;;2.00;99.90;;;;;;5014036;28;20205;-76
2021/01/28 02:03:09;;;;;;;30.90;22.83;;;2.10;99.90;;;;;;5015240;28;20176;-76
2021/01/28 02:05:40;;;;;;;28.13;21.93;;;2.10;99.90;;;;;;5003496;28;20214;-76
2021/01/28 02:08:06;;;;;;;28.53;21.67;;;2.10;99.90;;;;;;5013565;28;20175;-76
2021/01/28 02:10:32;;;;;;;29.53;21.23;;;2.10;99.90;;;;;;5013520;28;20182;-76
2021/01/28 02:12:59;;;;;;;30.47;21.47;;;2.10;99.90;;;;;;5013379;28;20184;-76
2021/01/28 02:15:25;;;;;;;27.00;20.70;;;2.10;99.90;;;;;;5013377;28;20269;-76
2021/01/28 02:17:54;;;;;;;29.27;20.90;;;2.20;99.90;;;;;;5013438;28;20181;-77
2021/01/28 02:20:20;;;;;;;27.93;20.80;;;2.20;99.90;;;;;;5013170;28;20671;-76
2021/01/28 02:22:45;;;;;;;28.27;21.97;;;2.20;99.90;;;;;;5013339;28;20241;-77
2021/01/28 02:25:30;;;;;;;29.03;21.43;;;2.20;99.90;;;;;;5013474;28;20199;-76
2021/01/28 02:28:03;;;;;;;31.90;21.73;;;2.20;99.90;;;;;;5013238;28;20175;-76
2021/01/28 02:30:31;;;;;;;27.43;20.60;;;2.20;99.90;;;;;;5012888;28;20194;-76
2021/01/28 02:32:57;;;;;;;28.30;21.67;;;2.20;99.90;;;;;;5013404;28;20386;-76
2021/01/28 02:35:26;;;;;;;31.90;22.57;;;2.20;99.90;;;;;;5013277;28;20221;-76
2021/01/28 02:37:52;;;;;;;29.77;21.53;;;2.20;99.90;;;;;;5012844;28;20195;-76
2021/01/28 02:40:21;;;;;;;29.07;21.40;;;2.20;99.90;;;;;;5012972;28;20952;-76
2021/01/28 02:42:47;;;;;;;28.93;21.37;;;2.30;99.90;;;;;;5012968;28;20203;-76
2021/01/28 02:45:19;;;;;;;32.03;22.40;;;2.30;99.90;;;;;;5011487;28;20656;-76
2021/01/28 02:47:53;;;;;;;31.57;21.37;;;2.30;99.90;;;;;;5012814;28;20168;-76
2021/01/28 02:50:19;;;;;;;31.60;21.93;;;2.30;99.90;;;;;;5012821;28;20190;-76
2021/01/28 02:52:45;;;;;;;32.80;21.87;;;2.30;99.90;;;;;;5012792;28;20186;-76
2021/01/28 02:55:13;;;;;;;33.20;22.57;;;2.30;99.90;;;;;;5006089;28;20234;-76
2021/01/28 02:57:38;;;;;;;30.87;22.47;;;2.30;99.90;;;;;;5009235;28;20218;-76
2021/01/28 03:00:11;;;;;;;32.40;21.50;;;2.30;99.90;;;;;;5010866;28;20241;-76
2021/01/28 03:02:37;;;;;;;31.43;23.00;;;2.30;99.90;;;;;;5012080;28;20167;-76
2021/01/28 03:05:04;;;;;;;30.60;21.87;;;2.30;99.90;;;;;;5012811;28;20219;-76
2021/01/28 03:07:29;;;;;;;29.60;21.30;;;2.30;99.90;;;;;;5012562;28;20183;-76
2021/01/28 03:09:56;;;;;;;30.17;21.73;;;2.40;99.90;;;;;;5011801;28;20186;-76
2021/01/28 03:12:21;;;;;;;31.80;22.77;;;2.40;99.90;;;;;;5012513;28;20175;-76
2021/01/28 03:14:47;;;;;;;30.10;21.90;;;2.30;99.90;;;;;;5012490;28;20206;-76
2021/01/28 03:17:13;;;;;;;27.47;19.70;;;2.30;99.90;;;;;;5012771;28;20206;-76
2021/01/28 03:19:39;;;;;;;29.93;20.57;;;2.30;99.90;;;;;;5012529;28;20213;-76
2021/01/28 03:22:05;;;;;;;29.97;20.63;;;2.30;99.90;;;;;;5011474;28;20231;-76
2021/01/28 03:24:31;;;;;;;27.73;20.97;;;2.30;99.90;;;;;;5010675;28;20249;-77
2021/01/28 03:26:57;;;;;;;30.87;20.87;;;2.40;99.90;;;;;;5012571;28;20204;-77
2021/01/28 03:29:23;;;;;;;29.53;20.60;;;2.30;99.90;;;;;;5012387;28;20593;-77
2021/01/28 03:31:49;;;;;;;30.37;20.63;;;2.30;99.90;;;;;;5012337;28;20214;-77
2021/01/28 03:34:14;;;;;;;28.93;21.03;;;2.30;99.90;;;;;;4978454;28;20187;-77
2021/01/28 03:36:41;;;;;;;29.67;21.20;;;2.20;99.90;;;;;;5012551;28;20260;-77
2021/01/28 03:39:07;;;;;;;34.27;22.73;;;2.30;99.90;;;;;;5012281;28;20187;-77
2021/01/28 03:41:33;;;;;;;33.30;22.13;;;2.30;99.90;;;;;;5012208;28;20195;-77
2021/01/28 03:43:59;;;;;;;31.73;21.13;;;2.30;99.90;;;;;;5012256;28;20528;-77
2021/01/28 03:46:24;;;;;;;30.37;21.40;;;2.20;99.90;;;;;;5012117;28;20203;-76
2021/01/28 03:48:51;;;;;;;31.20;21.77;;;2.20;99.90;;;;;;5012458;28;20204;-76
2021/01/28 03:51:16;;;;;;;29.93;21.07;;;2.20;99.90;;;;;;5023683;28;20257;-76
2021/01/28 03:53:42;;;;;;;33.20;21.93;;;2.20;99.90;;;;;;5012157;28;20190;-76
2021/01/28 03:56:08;;;;;;;31.77;21.83;;;2.10;99.90;;;;;;5011959;28;20202;-75
2021/01/28 03:58:33;;;;;;;33.97;23.77;;;2.00;99.90;;;;;;5012005;28;20183;-75
2021/01/28 04:01:00;;;;;;;33.53;22.60;;;2.00;99.90;;;;;;5012408;28;20209;-76
2021/01/28 04:03:26;;;;;;;33.30;22.47;;;2.00;99.90;;;;;;5010836;28;20183;-76
2021/01/28 04:05:52;;;;;;;35.03;22.43;;;2.00;99.90;;;;;;5010704;28;20230;-76
2021/01/28 04:08:17;;;;;;;38.57;22.97;;;2.00;99.90;;;;;;5014448;28;20181;-76
2021/01/28 04:10:43;;;;;;;35.63;22.10;;;1.90;99.90;;;;;;5010859;28;20202;-76
2021/01/28 04:13:09;;;;;;;36.33;23.80;;;1.90;99.90;;;;;;5012266;28;20186;-76
2021/01/28 04:15:35;;;;;;;39.63;24.10;;;1.90;99.90;;;;;;5010635;28;20203;-76
2021/01/28 04:18:02;;;;;;;36.67;22.03;;;1.90;99.90;;;;;;5011915;28;20183;-76
2021/01/28 04:20:33;;;;;;;35.03;22.97;;;1.90;99.90;;;;;;5011839;28;20249;-76
2021/01/28 04:22:59;;;;;;;33.20;21.53;;;1.90;99.90;;;;;;5011908;28;20519;-76
2021/01/28 04:25:25;;;;;;;34.53;21.43;;;1.80;99.90;;;;;;5011702;28;20222;-76
2021/01/28 04:27:52;;;;;;;35.17;22.10;;;1.90;99.90;;;;;;5012147;28;20183;-76
2021/01/28 04:30:28;;;;;;;38.53;23.60;;;1.90;99.90;;;;;;5011902;28;20175;-76
2021/01/28 04:32:54;;;;;;;38.43;24.47;;;1.90;99.90;;;;;;5011671;28;20205;-76
2021/01/28 04:35:19;;;;;;;35.07;22.50;;;1.90;99.90;;;;;;5012215;28;20740;-78
2021/01/28 04:37:45;;;;;;;40.53;23.77;;;1.90;99.90;;;;;;5015643;28;20229;-76
2021/01/28 04:40:26;;;;;;;35.20;21.70;;;1.90;99.90;;;;;;5015537;28;20206;-75
2021/01/28 04:42:52;;;;;;;35.37;23.13;;;1.90;99.90;;;;;;5015442;28;20182;-75
2021/01/28 04:45:22;;;;;;;34.30;21.80;;;1.90;99.90;;;;;;5015282;28;20190;-75
2021/01/28 04:47:58;;;;;;;31.87;21.33;;;1.90;99.90;;;;;;5015236;28;20225;-76
2021/01/28 04:50:28;;;;;;;28.33;19.93;;;1.90;99.90;;;;;;5015113;28;20232;-76
2021/01/28 04:53:00;;;;;;;28.17;18.50;;;1.90;99.90;;;;;;5013305;28;20266;-76
2021/01/28 04:55:41;;;;;;;24.57;17.23;;;2.00;99.90;;;;;;5013587;28;20203;-76
2021/01/28 04:58:07;;;;;;;21.17;16.20;;;2.10;99.90;;;;;;5014688;28;20179;-76
2021/01/28 05:00:33;;;;;;;21.50;15.90;;;2.30;99.90;;;;;;5012588;28;20207;-75
2021/01/28 05:03:11;;;;;;;22.87;16.60;;;2.40;99.90;;;;;;5005300;28;20238;-76
2021/01/28 05:05:38;;;;;;;22.53;16.20;;;2.40;99.90;;;;;;5011163;28;20249;-76
2021/01/28 05:08:04;;;;;;;20.33;15.97;;;2.40;99.90;;;;;;5006627;28;20187;-76
2021/01/28 05:10:30;;;;;;;23.70;17.50;;;2.50;99.90;;;;;;5013284;28;20194;-75
2021/01/28 05:12:59;;;;;;;21.30;16.10;;;2.60;99.90;;;;;;5014570;28;20183;-76
2021/01/28 05:15:34;;;;;;;23.90;18.10;;;2.60;99.90;;;;;;5013944;28;20191;-76
2021/01/28 05:18:25;;;;;;;23.00;17.27;;;2.60;99.90;;;;;;5014779;28;20190;-75
2021/01/28 05:20:52;;;;;;;23.97;16.63;;;2.50;99.90;;;;;;5014468;28;20303;-75
2021/01/28 05:23:30;;;;;;;22.93;16.73;;;2.50;99.90;;;;;;5014732;28;20225;-75
2021/01/28 05:25:56;;;;;;;22.37;16.83;;;2.50;99.90;;;;;;5014423;28;20227;-75
2021/01/28 05:28:33;;;;;;;22.83;16.30;;;2.60;99.90;;;;;;5014517;28;20210;-76
2021/01/28 05:31:00;;;;;;;21.77;16.20;;;2.60;99.90;;;;;;5014190;28;20642;-75
2021/01/28 05:33:44;;;;;;;21.40;16.60;;;2.60;99.90;;;;;;5014533;28;20183;-76
2021/01/28 05:36:12;;;;;;;22.83;16.70;;;2.60;99.90;;;;;;5013254;28;20199;-76
2021/01/28 05:38:43;;;;;;;20.73;16.03;;;2.60;99.90;;;;;;5013287;28;20646;-76
2021/01/28 05:41:24;;;;;;;21.77;15.63;;;2.60;99.90;;;;;;5013439;28;20711;-76
2021/01/28 05:43:50;;;;;;;21.37;15.80;;;2.60;99.90;;;;;;5013969;28;20179;-76
2021/01/28 05:46:18;;;;;;;21.63;16.60;;;2.70;99.90;;;;;;5013955;28;20290;-76
2021/01/28 05:48:58;;;;;;;21.57;16.90;;;2.60;99.90;;;;;;5013886;28;20646;-76
2021/01/28 05:51:25;;;;;;;23.00;16.43;;;2.70;99.90;;;;;;5014144;28;20538;-76
2021/01/28 05:54:18;;;;;;;20.23;15.80;;;2.70;99.90;;;;;;5014059;28;20183;-76
2021/01/28 05:57:13;;;;;;;19.43;15.37;;;2.70;99.90;;;;;;5013616;28;20237;-76
2021/01/28 05:59:58;;;;;;;21.23;16.07;;;2.70;99.90;;;;;;5011050;28;20199;-76
2021/01/28 06:03:06;;;;;;;19.73;15.60;;;2.70;99.90;;;;;;5013653;28;20233;-76
2021/01/28 06:06:03;;;;;;;18.90;14.50;;;2.80;99.90;;;;;;5011437;28;20285;-76
2021/01/28 06:08:53;;;;;;;18.57;14.27;;;2.80;99.90;;;;;;5013426;28;20214;-75
2021/01/28 06:11:21;;;;;;;21.10;15.60;;;2.80;99.90;;;;;;5013588;28;20209;-76
2021/01/28 06:14:02;;;;;;;18.97;15.23;;;2.90;99.90;;;;;;5013737;28;20183;-76
2021/01/28 06:17:12;;;;;;;21.73;15.30;;;2.90;99.90;;;;;;5015875;28;20715;-76
2021/01/28 06:20:03;;;;;;;18.60;14.30;;;2.80;99.90;;;;;;5004130;28;20257;-76
2021/01/28 06:23:07;;;;;;;18.67;14.77;;;2.90;99.90;;;;;;5013217;28;20262;-76
2021/01/28 06:25:35;;;;;;;15.50;12.87;;;2.90;99.90;;;;;;5013196;28;20672;-76
2021/01/28 06:28:50;;;;;;;15.43;13.23;;;2.90;99.90;;;;;;5013366;28;20637;-77
2021/01/28 06:31:43;;;;;;;15.20;12.60;;;2.90;99.90;;;;;;5011440;28;20186;-76
2021/01/28 06:34:27;;;;;;;18.77;14.67;;;3.00;99.90;;;;;;5011826;28;20710;-76
2021/01/28 06:36:56;;;;;;;18.30;14.43;;;3.00;99.90;;;;;;5013164;28;20202;-76
2021/01/28 06:39:56;;;;;;;20.23;14.77;;;3.00;99.90;;;;;;5013304;28;20197;-76
2021/01/28 06:42:39;;;;;;;16.67;13.70;;;3.00;99.90;;;;;;5001336;28;20439;-76
2021/01/28 06:45:17;;;;;;;15.40;12.80;;;3.10;99.90;;;;;;5012949;28;20227;-76
2021/01/28 06:47:51;;;;;;;14.40;12.47;;;3.00;99.90;;;;;;5012807;28;20175;-76
2021/01/28 06:50:32;;;;;;;14.87;12.57;;;3.10;99.90;;;;;;5013205;28;20225;-76
2021/01/28 06:53:03;;;;;;;16.97;13.47;;;3.00;99.90;;;;;;5012828;28;20170;-76
2021/01/28 06:55:41;;;;;;;15.70;13.00;;;3.10;99.90;;;;;;5012568;28;20215;-76
2021/01/28 06:58:35;;;;;;;16.60;14.00;;;3.10;99.90;;;;;;5011084;28;20199;-76
2021/01/28 07:01:30;;;;;;;16.93;14.13;;;3.00;99.90;;;;;;5011338;28;20215;-76
2021/01/28 07:04:02;;;;;;;18.37;15.17;;;3.00;99.90;;;;;;5012498;28;20164;-76
2021/01/28 07:06:57;;;;;;;18.53;14.03;;;3.00;99.90;;;;;;5027863;28;20293;-76
2021/01/28 07:09:33;;;;;;;15.07;13.03;;;3.00;99.90;;;;;;5012801;28;20299;-76
2021/01/28 07:12:03;;;;;;;15.20;12.77;;;3.10;99.90;;;;;;5007395;28;20192;-76
2021/01/28 07:14:30;;;;;;;12.93;11.57;;;3.30;99.90;;;;;;5000983;28;20192;-76
2021/01/28 07:17:04;;;;;;;14.27;12.37;;;3.20;99.90;;;;;;5011069;28;20222;-76
2021/01/28 07:19:33;;;;;;;15.50;12.27;;;3.20;99.90;;;;;;5012459;28;20203;-76
2021/01/28 07:22:27;;;;;;;13.77;12.20;;;3.20;99.90;;;;;;5011802;28;20272;-76
2021/01/28 07:24:54;;;;;;;14.27;12.70;;;3.10;99.90;;;;;;5012419;28;20175;-76
2021/01/28 07:27:41;;;;;;;14.13;12.57;;;3.10;99.90;;;;;;5012632;28;20250;-75
2021/01/28 07:30:08;;;;;;;14.07;12.53;;;3.10;99.90;;;;;;5012339;28;20646;-76
2021/01/28 07:32:55;;;;;;;13.83;12.43;;;3.20;99.90;;;;;;5012303;28;20668;-77
2021/01/28 07:35:26;;;;;;;12.70;11.47;;;3.40;99.90;;;;;;5012215;28;20199;-77
2021/01/28 07:37:53;;;;;;;17.87;12.97;;;3.40;99.90;;;;;;5012603;28;20714;-75
2021/01/28 07:40:59;;;;;;;13.70;11.87;;;3.40;99.90;;;;;;5012574;28;20602;-75
2021/01/28 07:43:29;;;;;;;13.73;11.50;;;3.30;99.90;;;;;;5011211;28;20177;-77
2021/01/28 07:46:13;;;;;;;15.30;12.10;;;3.30;99.90;;;;;;5012833;28;20195;-75
2021/01/28 07:48:40;;;;;;;13.10;11.70;;;3.30;99.90;;;;;;5012412;28;20187;-76
2021/01/28 07:51:29;;;;;;;12.80;11.50;;;3.30;99.90;;;;;;5012464;28;20225;-77
2021/01/28 07:53:55;;;;;;;13.87;11.47;;;3.30;99.90;;;;;;5012491;28;20176;-76
2021/01/28 07:56:36;;;;;;;13.70;11.20;;;3.30;99.90;;;;;;5010872;28;20196;-76
2021/01/28 07:59:46;;;;;;;12.63;11.00;;;3.30;99.90;;;;;;5011388;28;20179;-76
2021/01/28 08:02:27;;;;;;;12.93;11.40;;;3.40;99.90;;;;;;5012207;28;20191;-77
2021/01/28 08:05:03;;;;;;;11.43;10.13;;;3.50;99.90;;;;;;5011895;28;20674;-76
2021/01/28 08:07:43;;;;;;;16.87;11.83;;;3.40;99.90;;;;;;5011312;28;20186;-76
2021/01/28 08:10:29;;;;;;;12.67;10.30;;;3.40;99.90;;;;;;5013889;28;20167;-77
2021/01/28 08:13:19;;;;;;;10.77;9.67;;;3.40;99.90;;;;;;5016157;28;20167;-76
2021/01/28 08:15:53;;;;;;;9.23;8.33;;;3.50;99.90;;;;;;5015012;28;20682;-77
2021/01/28 08:18:28;;;;;;;8.90;8.03;;;3.60;99.90;;;;;;5019857;28;20565;-78
2021/01/28 08:21:08;;;;;;;8.93;8.13;;;3.70;99.90;;;;;;5016032;28;20210;-77
2021/01/28 08:23:36;;;;;;;8.60;7.73;;;3.60;99.90;;;;;;5016330;28;20190;-76
2021/01/28 08:26:29;;;;;;;9.77;8.10;;;3.60;99.90;;;;;;5016870;28;20250;-77
2021/01/28 08:29:11;;;;;;;10.23;8.13;;;3.60;99.90;;;;;;5017262;28;20179;-78
2021/01/28 08:31:47;;;;;;;7.67;6.93;;;3.60;99.90;;;;;;5017711;28;20310;-77
2021/01/28 08:34:20;;;;;;;7.87;6.90;;;3.60;99.90;;;;;;5017913;28;20858;-77
2021/01/28 08:36:59;;;;;;;7.57;6.87;;;3.60;99.90;;;;;;5016866;28;20199;-76
2021/01/28 08:39:29;;;;;;;7.27;6.60;;;3.70;99.90;;;;;;5016102;28;20171;-76
2021/01/28 08:42:11;;;;;;;6.90;6.30;;;3.70;99.90;;;;;;5017235;28;20267;-78
2021/01/28 08:44:39;;;;;;;7.17;6.57;;;3.70;99.90;;;;;;5015300;28;20198;-77
2021/01/28 08:47:24;;;;;;;7.00;6.40;;;3.80;99.90;;;;;;5017502;28;20226;-77
2021/01/28 08:50:15;;;;;;;8.93;5.90;;;3.80;99.90;;;;;;5014179;28;20175;-76
2021/01/28 08:52:42;;;;;;;6.53;6.00;;;3.90;99.90;;;;;;5017014;28;20185;-78
2021/01/28 08:55:19;;;;;;;5.40;5.00;;;3.90;99.90;;;;;;5016119;28;20827;-76
2021/01/28 08:57:46;;;;;;;6.00;5.50;;;4.00;99.90;;;;;;5018141;28;20187;-77
2021/01/28 09:00:14;;;;;;;6.07;5.47;;;4.00;99.90;;;;;;5016622;28;20190;-78
2021/01/28 09:02:45;;;;;;;5.50;5.00;;;4.00;99.90;;;;;;5016100;28;20202;-77
2021/01/28 09:05:11;;;;;;;6.83;6.13;;;4.00;99.90;;;;;;5016063;28;20226;-77
2021/01/28 09:07:52;;;;;;;6.10;5.57;;;3.90;99.90;;;;;;5013999;28;20167;-77
2021/01/28 09:10:35;;;;;;;6.17;5.57;;;4.00;99.90;;;;;;5014738;28;20183;-77
2021/01/28 09:13:20;;;;;;;7.03;6.23;;;4.00;99.90;;;;;;5015973;28;20634;-77
2021/01/28 09:15:49;;;;;;;7.00;6.33;;;4.00;99.90;;;;;;5014863;28;20208;-77
2021/01/28 09:18:27;;;;;;;7.20;6.60;;;4.00;99.90;;;;;;5014816;28;20194;-77
2021/01/28 09:21:03;;;;;;;6.77;5.93;;;4.00;99.90;;;;;;5013505;28;20195;-77
2021/01/28 09:23:29;;;;;;;5.60;5.10;;;4.10;99.90;;;;;;5015252;28;20187;-77
2021/01/28 09:26:23;;;;;;;6.10;5.50;;;4.10;99.90;;;;;;5014940;28;20187;-76
2021/01/28 09:28:49;;;;;;;5.07;4.67;;;4.20;99.90;;;;;;5015341;28;20591;-77
2021/01/28 09:31:28;;;;;;;4.63;4.23;;;4.20;99.90;;;;;;5015151;28;20206;-77
2021/01/28 09:33:54;;;;;;;4.60;4.10;;;4.30;99.90;;;;;;5015734;28;20178;-77
2021/01/28 09:36:20;;;;;;;4.70;4.10;;;4.30;99.90;;;;;;5016629;28;20201;-77
2021/01/28 09:39:04;;;;;;;4.53;4.00;;;4.40;99.90;;;;;;5018172;28;20612;-77
2021/01/28 09:41:40;;;;;;;4.30;3.70;;;4.40;99.90;;;;;;5018495;28;20214;-77
2021/01/28 09:44:36;;;;;;;3.20;2.73;;;4.40;99.90;;;;;;5016554;28;20193;-77
2021/01/28 09:47:26;;;;;;;3.40;3.10;;;4.50;99.90;;;;;;5017308;28;20202;-77
2021/01/28 09:49:57;;;;;;;3.03;2.83;;;4.50;99.90;;;;;;5015962;28;20545;-77
2021/01/28 09:52:24;;;;;;;2.87;2.60;;;4.60;99.90;;;;;;5015548;28;20546;-77
2021/01/28 09:54:56;;;;;;;2.57;2.13;;;4.60;99.90;;;;;;5016112;28;20195;-77
2021/01/28 09:57:22;;;;;;;2.47;2.27;;;4.60;99.90;;;;;;5017103;28;20229;-77
2021/01/28 09:59:48;;;;;;;3.13;2.03;;;4.70;99.90;;;;;;5016200;28;20167;-77
2021/01/28 10:02:18;;;;;;;1.77;1.67;;;4.70;99.90;;;;;;5015999;28;20218;-77
2021/01/28 10:04:45;;;;;;;2.20;1.40;;;4.70;99.90;;;;;;5015132;28;20196;-77
2021/01/28 10:07:11;;;;;;;2.17;1.57;;;4.70;99.90;;;;;;5015734;28;20175;-77
2021/01/28 10:09:38;;;;;;;1.97;1.57;;;4.70;99.90;;;;;;5015274;28;20246;-77
2021/01/28 10:12:04;;;;;;;1.40;1.30;;;4.70;99.90;;;;;;5015843;28;20609;-77
2021/01/28 10:14:30;;;;;;;1.60;1.37;;;4.80;99.90;;;;;;5015423;28;20664;-77
2021/01/28 10:16:56;;;;;;;1.30;1.20;;;4.80;99.90;;;;;;5015961;28;20192;-77
2021/01/28 10:19:22;;;;;;;1.43;1.00;;;4.80;99.90;;;;;;5015875;28;20186;-77
2021/01/28 10:21:48;;;;;;;2.07;1.50;;;4.80;99.90;;;;;;5018191;28;20235;-77
2021/01/28 10:24:14;;;;;;;1.63;1.27;;;4.90;99.90;;;;;;4999832;28;20167;-77
2021/01/28 10:26:40;;;;;;;0.90;0.90;;;4.90;99.90;;;;;;5014847;28;20689;-77
2021/01/28 10:29:05;;;;;;;0.97;0.90;;;4.90;99.90;;;;;;5015125;28;20214;-77
2021/01/28 10:31:31;;;;;;;1.00;0.80;;;4.90;99.90;;;;;;5013996;28;20561;-76
2021/01/28 10:33:57;;;;;;;1.27;1.10;;;5.00;99.90;;;;;;5012718;28;20175;-78
2021/01/28 10:36:23;;;;;;;1.73;1.50;;;5.00;99.90;;;;;;5012931;28;20196;-76
2021/01/28 10:38:49;;;;;;;2.03;1.60;;;5.00;99.90;;;;;;5012935;28;20184;-76
2021/01/28 10:41:17;;;;;;;3.40;2.10;;;5.10;99.90;;;;;;5013915;28;20250;-76
2021/01/28 10:43:43;;;;;;;1.10;1.00;;;5.20;99.90;;;;;;5013889;28;20187;-77
2021/01/28 10:46:09;;;;;;;1.30;1.13;;;5.20;99.90;;;;;;5012698;28;20595;-76
2021/01/28 10:48:35;;;;;;;2.10;1.00;;;5.30;99.90;;;;;;5013028;28;20232;-77
2021/01/28 10:51:03;;;;;;;1.30;1.00;;;5.20;99.90;;;;;;5013094;28;20180;-76
2021/01/28 10:53:30;;;;;;;1.30;1.17;;;5.20;99.90;;;;;;5012985;28;20618;-77
2021/01/28 10:55:56;;;;;;;1.57;1.27;;;5.30;99.90;;;;;;5012703;28;20204;-76
2021/01/28 10:58:26;;;;;;;2.37;1.60;;;5.30;99.90;;;;;;5012745;28;20698;-76
2021/01/28 11:00:53;;;;;;;1.50;1.40;;;5.30;99.90;;;;;;5011410;28;20619;-76
2021/01/28 11:03:18;;;;;;;1.17;1.07;;;5.30;99.90;;;;;;5014061;28;20202;-78
2021/01/28 11:05:45;;;;;;;1.30;1.20;;;5.40;99.90;;;;;;5014065;28;20265;-78
2021/01/28 11:08:11;;;;;;;1.57;1.30;;;5.40;99.90;;;;;;5014277;28;20181;-78
2021/01/28 11:10:39;;;;;;;1.47;1.37;;;5.40;99.90;;;;;;5014004;28;20212;-77
2021/01/28 11:13:05;;;;;;;1.60;1.50;;;5.50;99.90;;;;;;5012430;28;20196;-77
2021/01/28 11:15:35;;;;;;;3.30;1.00;;;5.50;99.90;;;;;;5012834;28;20219;-77
2021/01/28 11:18:02;;;;;;;1.30;1.20;;;5.60;99.90;;;;;;5013324;28;20696;-79
2021/01/28 11:20:28;;;;;;;4.10;3.17;;;5.50;99.90;;;;;;5014372;28;20197;-79
2021/01/28 11:22:53;;;;;;;2.27;2.07;;;5.60;99.90;;;;;;5013261;28;20271;-78
2021/01/28 11:25:22;;;;;;;1.43;1.33;;;5.70;99.90;;;;;;5014150;28;20195;-79
2021/01/28 11:27:49;;;;;;;2.17;1.33;;;5.60;99.90;;;;;;5008375;28;20188;-79
2021/01/28 11:30:17;;;;;;;1.10;1.00;;;5.70;99.90;;;;;;5008405;28;20654;-78
2021/01/28 11:32:43;;;;;;;1.00;1.00;;;5.70;99.90;;;;;;4996397;28;20219;-78
2021/01/28 11:35:09;;;;;;;1.10;1.00;;;5.80;99.90;;;;;;5010850;28;20224;-79
2021/01/28 11:37:35;;;;;;;1.30;1.20;;;5.80;99.90;;;;;;5011187;28;20193;-79
2021/01/28 11:40:02;;;;;;;1.07;0.97;;;5.80;99.90;;;;;;5003894;28;20314;-78
2021/01/28 11:42:27;;;;;;;0.93;0.83;;;5.80;99.90;;;;;;5005028;28;20552;-77
2021/01/28 11:44:53;;;;;;;1.97;1.20;;;5.80;99.90;;;;;;5009574;28;20291;-79
2021/01/28 11:47:18;;;;;;;1.10;1.00;;;5.90;99.90;;;;;;5013546;28;20556;-77
2021/01/28 11:49:44;;;;;;;1.30;1.20;;;5.90;99.90;;;;;;5015080;28;20191;-78
2021/01/28 11:52:10;;;;;;;1.57;1.47;;;5.90;99.90;;;;;;5013280;28;20272;-79
2021/01/28 11:54:35;;;;;;;1.87;1.70;;;6.00;99.90;;;;;;5014506;28;20181;-78
2021/01/28 11:57:01;;;;;;;2.47;1.67;;;6.00;99.90;;;;;;5010375;28;20206;-78
2021/01/28 11:59:27;;;;;;;2.40;1.50;;;6.10;99.90;;;;;;5014122;28;20196;-78
2021/01/28 12:01:52;;;;;;;1.67;1.23;;;6.10;99.90;;;;;;5028600;28;20237;-78
2021/01/28 12:04:18;;;;;;;1.30;1.20;;;6.20;99.90;;;;;;5009783;28;20209;-77
2021/01/28 12:06:44;;;;;;;1.00;0.90;;;6.20;99.90;;;;;;5025340;28;20619;-77
2021/01/28 12:09:10;;;;;;;0.80;0.60;;;6.40;99.90;;;;;;5007774;28;20224;-77
2021/01/28 12:11:36;;;;;;;1.00;0.67;;;6.60;99.90;;;;;;5012270;28;20186;-77
2021/01/28 12:14:02;;;;;;;0.50;0.50;;;6.30;99.90;;;;;;5006852;28;20328;-77
2021/01/28 12:16:28;;;;;;;1.57;0.77;;;;;;;;;;5012159;28;20260;-76
2021/01/28 12:18:53;;;;;;;0.80;0.57;;;6.50;99.90;;;;;;5011147;28;20190;-77
2021/01/28 12:21:19;;;;;;;1.10;0.90;;;6.60;99.90;;;;;;5015023;28;20214;-78
2021/01/28 12:23:45;;;;;;;0.80;0.80;;;6.50;99.90;;;;;;5014075;28;20215;-77
2021/01/28 12:26:11;;;;;;;0.53;0.50;;;6.50;99.90;;;;;;5014522;28;20695;-77
2021/01/28 12:28:37;;;;;;;2.90;0.77;;;6.50;99.90;;;;;;5017127;28;20189;-79
2021/01/28 12:31:03;;;;;;;0.70;0.67;;;6.50;99.90;;;;;;5017635;28;20180;-78
2021/01/28 12:33:30;;;;;;;0.93;0.63;;;6.60;99.90;;;;;;5018806;28;20189;-78
2021/01/28 12:35:55;;;;;;;0.40;0.40;;;6.60;99.90;;;;;;5017618;28;20202;-77
2021/01/28 12:38:21;;;;;;;1.23;0.60;;;6.60;99.90;;;;;;5017578;28;20194;-78
2021/01/28 12:40:47;;;;;;;1.20;1.10;;;6.60;99.90;;;;;;5018666;28;20203;-79
2021/01/28 12:43:13;;;;;;;0.77;0.63;;;;;;;;;;5018873;28;20208;-78
2021/01/28 12:45:39;;;;;;;1.67;0.70;;;;;;;;;;5019009;28;20265;-78
2021/01/28 12:48:06;;;;;;;1.30;1.13;;;;;;;;;;5019179;28;20175;-78
2021/01/28 12:50:31;;;;;;;1.30;1.13;;;6.60;99.90;;;;;;5018964;28;20266;-79
2021/01/28 12:52:58;;;;;;;2.00;0.80;;;;;;;;;;5018998;28;20239;-79
2021/01/28 12:55:24;;;;;;;1.70;1.00;;;6.70;99.90;;;;;;5018737;28;20218;-77
2021/01/28 12:57:50;;;;;;;0.80;0.70;;;6.70;99.90;;;;;;5018153;28;20194;-79
2021/01/28 13:00:19;;;;;;;0.80;0.70;;;6.70;99.90;;;;;;5016944;28;20183;-78
2021/01/28 13:02:44;;;;;;;0.60;0.60;;;6.70;99.90;;;;;;5018049;28;20187;-79
2021/01/28 13:05:11;;;;;;;0.80;0.80;;;6.80;99.90;;;;;;5018119;28;20208;-78
2021/01/28 13:07:37;;;;;;;2.30;1.40;;;6.80;99.90;;;;;;5017937;28;20185;-79